Time;durP1;ratioP1;P1;durP2;ratioP2;P2;SDS_P1;SDS_P2;PMS_P1;PMS_P2;Temp;Humidity;BMP_temperature;BMP_pressure;BME280_temperature;BME280_humidity;BME280_pressure;Samples;Min_cycle;Max_cycle;Signal;HPM_P1;HPM_P2
2023/09/25 00:02:08;;;;;;;8.60;3.25;;;;;;;13.29;89.35;101963.09;6241336;23;20003;-75
2023/09/25 00:04:34;;;;;;;10.73;3.20;;;;;;;13.29;89.90;101971.19;6213575;23;20039;-74
2023/09/25 00:07:01;;;;;;;11.95;3.50;;;;;;;13.24;89.61;101966.09;6213095;23;20008;-74
2023/09/25 00:09:27;;;;;;;8.50;3.08;;;;;;;13.23;89.80;101968.91;6240509;23;20493;-74
2023/09/25 00:11:52;;;;;;;11.70;3.67;;;;;;;13.24;89.94;101976.03;6213519;23;20000;-74
2023/09/25 00:14:18;;;;;;;10.82;3.00;;;;;;;13.20;90.31;101961.00;6240668;23;20027;-74
2023/09/25 00:16:44;;;;;;;7.40;2.83;;;;;;;13.18;90.45;101969.22;6240395;23;20032;-74
2023/09/25 00:19:09;;;;;;;7.50;3.17;;;;;;;13.20;90.23;101971.81;6214057;23;20004;-74
2023/09/25 00:21:34;;;;;;;8.88;3.05;;;;;;;13.18;89.69;101973.75;6241200;23;20042;-74
2023/09/25 00:24:00;;;;;;;8.85;3.20;;;;;;;13.18;88.96;101976.47;6213915;23;20008;-74
2023/09/25 00:26:25;;;;;;;9.05;3.22;;;;;;;13.14;88.71;101972.22;6240116;23;20154;-74
2023/09/25 00:28:51;;;;;;;11.18;3.53;;;;;;;13.17;89.35;101983.66;6240727;23;20434;-74
2023/09/25 00:31:16;;;;;;;8.85;3.15;;;;;;;13.14;89.24;101975.78;6213081;23;20091;-74
2023/09/25 00:33:41;;;;;;;9.90;3.30;;;;;;;13.12;89.13;101975.03;6241460;23;20007;-74
2023/09/25 00:36:07;;;;;;;10.63;3.63;;;;;;;13.10;88.90;101974.25;6240543;23;20106;-74
2023/09/25 00:38:32;;;;;;;12.07;3.45;;;;;;;13.11;89.42;101970.59;6239502;23;20004;-74
2023/09/25 00:40:57;;;;;;;11.82;2.75;;;;;;;13.10;89.07;101980.53;6240065;23;20050;-73
2023/09/25 00:43:23;;;;;;;13.75;3.63;;;;;;;13.07;89.34;101977.16;6240354;23;20035;-74
2023/09/25 00:45:49;;;;;;;5.78;2.90;;;;;;;13.05;89.97;101979.09;6213505;23;20091;-74
2023/09/25 00:48:27;;;;;;;15.45;3.10;;;;;;;13.06;90.16;101976.28;6213315;23;20081;-73
2023/09/25 00:50:54;;;;;;;9.98;3.45;;;;;;;13.04;89.78;101980.06;6240240;23;20000;-74
2023/09/25 00:53:20;;;;;;;10.52;3.40;;;;;;;13.03;89.58;101975.59;6213898;23;20007;-74
2023/09/25 00:55:47;;;;;;;11.05;3.38;;;;;;;13.02;90.61;101982.84;6215002;23;20030;-74
2023/09/25 00:58:12;;;;;;;14.27;3.80;;;;;;;13.01;90.66;101980.25;6214479;23;20000;-73
2023/09/25 01:00:38;;;;;;;9.98;3.00;;;;;;;12.99;89.83;101982.16;6213486;23;20020;-71
2023/09/25 01:03:04;;;;;;;6.85;2.83;;;;;;;12.98;90.07;101983.16;6212097;23;20343;-72
2023/09/25 01:05:32;;;;;;;8.27;3.20;;;;;;;12.98;90.54;101977.75;6238807;23;20445;-71
2023/09/25 01:07:57;;;;;;;8.95;3.08;;;;;;;12.94;90.05;101983.38;6239750;23;20086;-72
2023/09/25 01:10:22;;;;;;;8.25;2.88;;;;;;;12.93;89.91;101980.75;6239896;23;20000;-72
2023/09/25 01:12:48;;;;;;;13.07;3.53;;;;;;;12.89;91.11;101988.19;6213398;23;20004;-72
2023/09/25 01:15:14;;;;;;;8.15;3.17;;;;;;;12.88;91.23;101991.84;6212799;23;20008;-73
2023/09/25 01:17:40;;;;;;;12.00;3.33;;;;;;;12.81;91.41;101989.63;6240849;23;20008;-72
2023/09/25 01:20:12;;;;;;;11.50;3.20;;;;;;;12.78;90.77;101985.28;6240504;23;20473;-71
2023/09/25 01:22:39;;;;;;;10.85;3.33;;;;;;;12.77;90.87;101987.13;6239856;23;20096;-71
2023/09/25 01:25:06;;;;;;;14.70;3.53;;;;;;;12.75;90.56;101982.81;6239023;23;20419;-72
2023/09/25 01:27:31;;;;;;;10.25;3.30;;;;;;;12.76;90.56;101976.44;6211989;23;20510;-71
2023/09/25 01:29:56;;;;;;;13.68;3.50;;;;;;;12.73;91.07;101980.22;6213263;23;20046;-71
2023/09/25 01:32:22;;;;;;;8.77;2.88;;;;;;;12.72;90.90;101980.31;6240319;23;20004;-71
2023/09/25 01:34:47;;;;;;;13.55;3.63;;;;;;;12.68;90.58;101989.56;6240292;23;20008;-71
2023/09/25 01:37:12;;;;;;;9.48;2.97;;;;;;;12.72;90.28;101972.22;6240497;23;20004;-72
2023/09/25 01:39:39;;;;;;;10.02;3.20;;;;;;;12.70;91.31;101974.16;6239609;23;20004;-71
2023/09/25 01:42:04;;;;;;;9.65;3.10;;;;;;;12.68;90.75;101976.06;6240454;23;20389;-72
2023/09/25 01:44:30;;;;;;;11.82;3.47;;;;;;;12.66;90.38;101968.06;6241309;23;20023;-71
2023/09/25 01:46:56;;;;;;;9.55;3.25;;;;;;;12.64;90.62;101970.03;6213929;23;20004;-72
2023/09/25 01:49:22;;;;;;;10.98;3.22;;;;;;;12.68;91.23;101967.97;6213543;23;20058;-71
2023/09/25 01:51:49;;;;;;;7.03;2.78;;;;;;;12.65;90.56;101971.75;6242261;23;20012;-72
2023/09/25 01:54:14;;;;;;;11.93;3.42;;;;;;;12.64;90.54;101971.84;6214901;23;20030;-72
2023/09/25 01:56:39;;;;;;;14.13;3.28;;;;;;;12.64;91.39;101969.16;6241219;23;20004;-71
2023/09/25 01:59:05;;;;;;;10.85;3.38;;;;;;;12.62;91.34;101971.06;6241885;23;20679;-72
2023/09/25 02:01:30;;;;;;;11.50;3.70;;;;;;;12.60;90.63;101968.47;6242179;23;20004;-71
2023/09/25 02:03:55;;;;;;;9.93;3.60;;;;;;;12.58;90.75;101967.72;6213532;23;20015;-72
2023/09/25 02:06:21;;;;;;;12.20;3.53;;;;;;;12.58;90.87;101973.13;6213458;23;20116;-72
2023/09/25 02:08:46;;;;;;;9.82;3.17;;;;;;;12.58;91.00;101971.28;6241016;23;20079;-72
2023/09/25 02:11:12;;;;;;;9.68;3.22;;;;;;;12.57;90.95;101958.75;6241409;23;20062;-72
2023/09/25 02:13:37;;;;;;;9.50;3.78;;;;;;;12.54;90.54;101960.78;6213785;23;20031;-72
2023/09/25 02:16:02;;;;;;;9.35;3.00;;;;;;;12.55;90.60;101955.28;6242043;23;20011;-72
2023/09/25 02:18:28;;;;;;;9.65;3.05;;;;;;;12.54;91.22;101952.69;6214235;23;20438;-72
2023/09/25 02:20:53;;;;;;;9.35;3.25;;;;;;;12.51;89.57;101960.97;6214743;23;20004;-72
2023/09/25 02:23:19;;;;;;;13.07;3.72;;;;;;;12.53;90.81;101951.84;6241283;23;20090;-72
2023/09/25 02:25:44;;;;;;;12.50;3.35;;;;;;;12.50;90.42;101945.75;6215138;23;20023;-73
2023/09/25 02:28:09;;;;;;;11.30;3.25;;;;;;;12.54;90.45;101952.69;6242670;23;20015;-72
2023/09/25 02:30:35;;;;;;;9.25;3.25;;;;;;;12.54;90.87;101955.38;6215557;23;20396;-72
2023/09/25 02:33:00;;;;;;;9.63;3.30;;;;;;;12.53;91.35;101951.84;6215390;23;20014;-72
2023/09/25 02:35:26;;;;;;;10.20;3.17;;;;;;;12.49;89.87;101957.50;6214985;23;20000;-72
2023/09/25 02:37:51;;;;;;;13.45;4.03;;;;;;;12.52;90.29;101962.72;6242050;23;20000;-72
2023/09/25 02:40:16;;;;;;;13.57;4.07;;;;;;;12.51;89.59;101953.75;6241381;23;20058;-72
2023/09/25 02:42:44;;;;;;;10.88;3.58;;;;;;;12.51;90.96;101956.44;6241643;23;20015;-72
2023/09/25 02:45:10;;;;;;;11.23;3.47;;;;;;;12.51;88.78;101958.28;6214401;23;20123;-72
2023/09/25 02:47:36;;;;;;;7.70;3.17;;;;;;;12.50;89.87;101961.94;6214651;23;20007;-72
2023/09/25 02:50:01;;;;;;;13.43;3.70;;;;;;;12.48;89.02;101959.34;6242729;23;20000;-72
2023/09/25 02:52:26;;;;;;;9.00;2.95;;;;;;;12.49;88.86;101958.38;6241642;23;20426;-71
2023/09/25 02:54:52;;;;;;;11.27;3.10;;;;;;;12.45;88.31;101956.84;6241411;23;20005;-72
2023/09/25 02:57:17;;;;;;;13.88;3.60;;;;;;;12.47;89.00;101960.28;6240827;23;20004;-72
2023/09/25 02:59:42;;;;;;;9.10;2.97;;;;;;;12.48;88.45;101945.88;6213711;23;20084;-73
2023/09/25 03:02:08;;;;;;;10.98;3.63;;;;;;;12.51;89.19;101953.75;6214732;23;20008;-72
2023/09/25 03:04:33;;;;;;;11.85;3.83;;;;;;;12.50;88.87;101951.16;6215830;23;19999;-72
2023/09/25 03:06:58;;;;;;;9.63;2.85;;;;;;;12.45;88.19;101951.44;6242222;23;20069;-72
2023/09/25 03:09:24;;;;;;;12.30;3.75;;;;;;;12.46;88.67;101947.81;6215222;23;20004;-73
2023/09/25 03:11:49;;;;;;;12.82;3.58;;;;;;;12.46;88.65;101958.59;6241493;23;20303;-72
2023/09/25 03:14:15;;;;;;;13.25;3.60;;;;;;;12.42;87.92;101959.75;6240976;23;20335;-72
2023/09/25 03:16:41;;;;;;;12.15;3.40;;;;;;;12.42;88.54;101957.03;6241834;23;20494;-72
2023/09/25 03:19:06;;;;;;;13.60;3.35;;;;;;;12.40;88.63;101959.84;6214379;23;20004;-72
2023/09/25 03:21:31;;;;;;;9.73;3.15;;;;;;;12.42;88.63;101954.34;6240740;23;20024;-72
2023/09/25 03:23:57;;;;;;;13.88;3.65;;;;;;;12.41;88.43;101955.31;6241778;23;20454;-72
2023/09/25 03:26:22;;;;;;;10.02;3.10;;;;;;;12.40;88.57;101961.66;6241003;23;20091;-72
2023/09/25 03:28:48;;;;;;;10.55;3.15;;;;;;;12.40;88.80;101957.13;6240705;23;20010;-73
2023/09/25 03:31:13;;;;;;;13.77;3.60;;;;;;;12.41;89.00;101960.69;6214417;23;20350;-72
2023/09/25 03:33:40;;;;;;;10.32;3.50;;;;;;;12.44;89.44;101962.34;6240380;23;20001;-72
2023/09/25 03:36:06;;;;;;;10.85;3.40;;;;;;;12.38;88.38;101964.44;6239961;23;20011;-74
2023/09/25 03:38:32;;;;;;;11.60;3.35;;;;;;;12.38;88.10;101952.81;6241554;23;20151;-74
2023/09/25 03:40:58;;;;;;;10.95;3.40;;;;;;;12.41;89.14;101949.91;6242314;23;20007;-74
2023/09/25 03:43:24;;;;;;;9.48;3.25;;;;;;;12.38;88.58;101942.88;6242340;23;20000;-74
2023/09/25 03:45:49;;;;;;;12.10;3.28;;;;;;;12.40;88.52;101948.16;6214270;23;20488;-74
2023/09/25 03:48:15;;;;;;;11.25;3.30;;;;;;;12.38;88.34;101953.66;6241379;23;20071;-74
2023/09/25 03:50:40;;;;;;;9.95;3.00;;;;;;;12.43;88.86;101950.69;6241972;23;20004;-74
2023/09/25 03:53:05;;;;;;;11.32;3.60;;;;;;;12.38;88.61;101952.81;6240879;23;20065;-74
2023/09/25 03:55:31;;;;;;;8.68;2.97;;;;;;;12.40;88.83;101958.94;6240672;23;20003;-74
2023/09/25 03:57:56;;;;;;;10.98;3.38;;;;;;;12.40;88.88;101954.44;6240822;23;20405;-74
2023/09/25 04:00:23;;;;;;;12.82;3.63;;;;;;;12.36;88.18;101957.44;6240701;23;20027;-74
2023/09/25 04:02:48;;;;;;;11.25;3.33;;;;;;;12.38;88.67;101960.88;6240364;23;20032;-73
2023/09/25 04:05:13;;;;;;;9.55;3.33;;;;;;;12.40;89.00;101961.66;6240238;23;20006;-74
2023/09/25 04:07:39;;;;;;;11.38;3.72;;;;;;;12.35;88.35;101963.78;6214703;23;20381;-74
2023/09/25 04:10:06;;;;;;;17.95;3.55;;;;;;;12.34;87.45;101962.03;6241023;23;20382;-74
2023/09/25 04:12:32;;;;;;;13.90;3.72;;;;;;;12.36;88.31;101963.69;6213844;23;20007;-74
2023/09/25 04:14:58;;;;;;;10.50;3.20;;;;;;;12.38;87.67;101964.44;6212590;23;20004;-74
2023/09/25 04:17:24;;;;;;;8.38;3.10;;;;;;;12.37;87.58;101965.44;6241070;23;20026;-73
2023/09/25 04:19:50;;;;;;;11.52;3.63;;;;;;;12.35;87.67;101970.03;6241042;23;20000;-74
2023/09/25 04:22:16;;;;;;;10.45;3.10;;;;;;;12.37;87.75;101968.13;6213353;23;20341;-73
2023/09/25 04:24:41;;;;;;;9.52;3.08;;;;;;;12.39;87.58;101965.31;6212688;23;20007;-74
2023/09/25 04:27:09;;;;;;;11.57;3.55;;;;;;;12.39;87.44;101958.09;6240610;23;20038;-73
2023/09/25 04:29:35;;;;;;;11.82;3.47;;;;;;;12.37;87.84;101962.72;6213926;23;20008;-74
2023/09/25 04:32:03;;;;;;;8.45;2.83;;;;;;;12.40;88.12;101967.94;6240444;23;20004;-73
2023/09/25 04:34:29;;;;;;;10.27;3.13;;;;;;;12.39;88.34;101970.72;6213243;23;20007;-74
2023/09/25 04:36:54;;;;;;;13.68;3.95;;;;;;;12.37;87.76;101964.53;6240583;23;20004;-73
2023/09/25 04:39:20;;;;;;;10.02;3.22;;;;;;;12.35;87.54;101964.63;6240755;23;20034;-74
2023/09/25 04:41:47;;;;;;;11.52;3.58;;;;;;;12.37;87.49;101976.22;6240306;23;20055;-74
2023/09/25 04:44:13;;;;;;;13.57;3.47;;;;;;;12.37;87.93;101975.31;6237324;23;20008;-73
2023/09/25 04:46:38;;;;;;;15.18;3.95;;;;;;;12.35;86.91;101977.25;6212414;23;20161;-73
2023/09/25 04:49:07;;;;;;;7.50;2.67;;;;;;;12.39;88.17;101973.41;6238718;23;20064;-74
2023/09/25 04:51:33;;;;;;;8.68;2.85;;;;;;;12.39;87.61;101970.72;6213461;23;20031;-74
2023/09/25 04:54:00;;;;;;;10.10;3.15;;;;;;;12.40;87.07;101969.75;6212003;23;20014;-74
2023/09/25 04:56:27;;;;;;;9.18;3.00;;;;;;;12.36;86.59;101966.38;6212509;23;20373;-74
2023/09/25 04:58:52;;;;;;;11.77;3.38;;;;;;;12.39;86.32;101971.56;6213183;23;20054;-73
2023/09/25 05:01:18;;;;;;;10.65;3.20;;;;;;;12.39;86.13;101970.72;6212838;23;20000;-73
2023/09/25 05:03:43;;;;;;;9.40;3.30;;;;;;;12.41;86.13;101979.56;6240935;23;20026;-74
2023/09/25 05:06:12;;;;;;;11.93;2.92;;;;;;;12.40;86.26;101977.81;6214594;23;20119;-74
2023/09/25 05:08:38;;;;;;;11.52;3.22;;;;;;;12.44;86.84;101976.66;6240684;23;19995;-74
2023/09/25 05:11:07;;;;;;;10.60;3.05;;;;;;;12.42;87.45;101975.91;6239826;23;20000;-74
2023/09/25 05:13:33;;;;;;;13.13;3.90;;;;;;;12.43;86.61;101982.16;6213056;23;20054;-74
2023/09/25 05:16:00;;;;;;;11.25;3.50;;;;;;;12.45;86.42;101977.56;6240586;23;20464;-73
2023/09/25 05:18:25;;;;;;;10.85;3.00;;;;;;;12.42;86.80;101978.63;6215385;23;20011;-74
2023/09/25 05:20:51;;;;;;;14.02;3.20;;;;;;;12.39;85.72;101979.66;6241998;23;20004;-74
2023/09/25 05:23:18;;;;;;;10.15;2.92;;;;;;;12.43;87.28;101982.16;6215491;23;20154;-73
2023/09/25 05:25:44;;;;;;;11.82;3.45;;;;;;;12.41;85.28;101984.97;6241777;23;20004;-74
2023/09/25 05:28:09;;;;;;;12.23;3.58;;;;;;;12.44;85.96;101990.16;6240485;23;20373;-74
2023/09/25 05:30:35;;;;;;;12.68;3.53;;;;;;;12.40;84.56;101991.31;6240574;23;20008;-74
2023/09/25 05:33:00;;;;;;;8.43;3.35;;;;;;;12.44;85.39;101992.84;6241234;23;20019;-73
2023/09/25 05:35:25;;;;;;;10.02;3.10;;;;;;;12.42;85.77;101997.47;6240668;23;20011;-74
2023/09/25 05:37:51;;;;;;;10.13;3.08;;;;;;;12.43;85.50;101985.75;6214955;23;20000;-74
2023/09/25 05:40:17;;;;;;;12.10;3.30;;;;;;;12.41;86.39;101990.34;6214997;23;20008;-74
2023/09/25 05:42:45;;;;;;;9.48;3.40;;;;;;;12.38;85.34;101990.53;6215399;23;20012;-74
2023/09/25 05:45:11;;;;;;;12.50;3.40;;;;;;;12.36;85.45;101987.09;6242670;23;20423;-73
2023/09/25 05:47:37;;;;;;;14.57;3.80;;;;;;;12.38;84.93;101993.25;6242890;23;20043;-74
2023/09/25 05:50:06;;;;;;;12.02;2.85;;;;;;;12.40;85.62;101992.19;6215663;23;20087;-73
2023/09/25 05:52:32;;;;;;;11.57;3.37;;;;;;;12.40;86.19;101994.88;6242401;23;20008;-74
2023/09/25 05:54:57;;;;;;;9.63;3.30;;;;;;;12.39;86.05;102003.94;6242914;23;20292;-74
2023/09/25 05:57:23;;;;;;;10.88;2.83;;;;;;;12.42;85.90;101997.47;6215718;23;20001;-74
2023/09/25 05:59:48;;;;;;;10.52;3.35;;;;;;;12.40;85.89;101996.69;6215741;23;20433;-74
2023/09/25 06:02:14;;;;;;;10.82;3.60;;;;;;;12.43;85.11;101998.34;6242958;23;20308;-74
2023/09/25 06:04:39;;;;;;;12.18;3.67;;;;;;;12.43;85.90;102001.03;6242082;23;20069;-74
2023/09/25 06:07:05;;;;;;;9.75;3.58;;;;;;;12.46;85.93;101998.16;6215387;23;20043;-74
2023/09/25 06:09:31;;;;;;;15.10;4.05;;;;;;;12.44;85.25;102003.63;6215577;23;20344;-74
2023/09/25 06:11:57;;;;;;;9.18;3.45;;;;;;;12.43;85.43;102001.94;6215726;23;20007;-74
2023/09/25 06:14:23;;;;;;;10.52;3.67;;;;;;;12.47;86.17;102007.97;6242482;23;20372;-72
2023/09/25 06:16:48;;;;;;;10.07;3.25;;;;;;;12.49;86.30;102001.53;6241837;23;20011;-73
2023/09/25 06:19:14;;;;;;;12.55;3.60;;;;;;;12.49;85.03;102011.44;6241067;23;20004;-72
2023/09/25 06:21:39;;;;;;;12.65;3.53;;;;;;;12.53;86.15;102005.78;6215337;23;20039;-72
2023/09/25 06:24:09;;;;;;;10.52;3.42;;;;;;;12.58;86.23;102005.47;6242524;23;20365;-72
2023/09/25 06:26:39;;;;;;;;;;;;;;;12.61;86.28;101999.00;6243327;23;20095;-72
2023/09/25 06:29:04;;;;;;;;;;;;;;;12.61;86.43;102002.59;6242531;23;19942;-72
2023/09/25 06:31:30;;;;;;;12.55;3.45;;;;;;;12.62;85.81;102006.13;6242272;23;19908;-73
2023/09/25 06:33:55;;;;;;;12.98;3.78;;;;;;;12.62;86.18;102000.75;6214186;23;20475;-72
2023/09/25 06:36:20;;;;;;;11.93;3.38;;;;;;;12.66;85.10;102004.97;6242212;23;20091;-73
2023/09/25 06:38:46;;;;;;;15.52;4.10;;;;;;;12.68;85.63;102003.03;6241174;23;20007;-74
2023/09/25 06:41:11;;;;;;;13.43;3.97;;;;;;;12.64;83.71;102007.78;6241037;23;20000;-73
2023/09/25 06:43:37;;;;;;;13.93;3.67;;;;;;;12.66;84.47;102010.38;6239353;23;20004;-74
2023/09/25 06:46:03;;;;;;;16.08;3.90;;;;;;;12.71;84.87;102010.97;6213152;23;20468;-74
2023/09/25 06:48:28;;;;;;;11.93;3.75;;;;;;;12.72;84.55;102016.25;6241700;23;20078;-74
2023/09/25 06:50:54;;;;;;;13.02;3.42;;;;;;;12.75;83.72;102015.19;6241728;23;20374;-74
2023/09/25 06:53:19;;;;;;;12.13;3.90;;;;;;;12.77;83.69;102013.25;6213652;23;20012;-74
2023/09/25 06:55:44;;;;;;;13.30;3.60;;;;;;;12.82;85.38;102015.66;6240520;23;20008;-74
2023/09/25 06:58:10;;;;;;;10.68;3.03;;;;;;;12.85;83.45;102018.16;6239396;23;20083;-73
2023/09/25 07:00:36;;;;;;;9.68;3.20;;;;;;;12.89;84.50;102012.47;6238511;23;20079;-73
2023/09/25 07:03:01;;;;;;;11.48;3.53;;;;;;;12.95;85.06;102016.59;6212753;23;20078;-73
2023/09/25 07:05:28;;;;;;;13.80;3.55;;;;;;;12.99;84.48;102003.75;6240255;23;20000;-72
2023/09/25 07:07:53;;;;;;;8.45;2.85;;;;;;;13.01;83.51;102009.94;6241258;23;20004;-73
2023/09/25 07:10:19;;;;;;;9.75;3.10;;;;;;;13.09;84.01;102007.63;6240884;23;20337;-73
2023/09/25 07:12:44;;;;;;;10.15;3.10;;;;;;;13.16;83.10;102006.22;6240219;23;20004;-74
2023/09/25 07:15:10;;;;;;;11.30;3.45;;;;;;;13.19;83.45;102008.75;6213313;23;20016;-73
2023/09/25 07:17:36;;;;;;;15.05;3.58;;;;;;;13.26;84.86;102010.03;6240668;23;20008;-73
2023/09/25 07:20:01;;;;;;;9.98;3.45;;;;;;;13.32;83.40;102010.63;6213056;23;20073;-73
2023/09/25 07:22:27;;;;;;;7.72;2.97;;;;;;;13.36;83.10;102006.78;6238211;23;20008;-73
2023/09/25 07:24:53;;;;;;;10.05;3.30;;;;;;;13.41;83.49;102005.50;6212705;23;20012;-73
2023/09/25 07:27:19;;;;;;;8.00;2.60;;;;;;;13.46;82.59;102014.16;6239952;23;20361;-74
2023/09/25 07:29:45;;;;;;;10.85;3.63;;;;;;;13.53;82.42;102008.34;6239209;23;20007;-74
2023/09/25 07:32:12;;;;;;;13.60;3.72;;;;;;;13.59;83.38;102008.81;6240696;23;20122;-73
2023/09/25 07:34:42;;;;;;;11.60;3.55;;;;;;;13.64;83.37;102003.94;6240105;23;20178;-74
2023/09/25 07:37:08;;;;;;;11.50;3.83;;;;;;;13.69;82.47;102009.06;6214551;23;20004;-74
2023/09/25 07:39:35;;;;;;;10.50;2.90;;;;;;;13.74;82.54;102011.44;6239844;23;20019;-73
2023/09/25 07:42:01;;;;;;;11.48;3.22;;;;;;;13.79;82.14;102003.88;6239142;23;20077;-73
2023/09/25 07:44:26;;;;;;;9.88;3.53;;;;;;;13.83;83.58;102001.84;6239940;23;20418;-71
2023/09/25 07:46:57;;;;;;;7.68;2.97;;;;;;;13.90;83.17;102005.84;6241419;23;20015;-72
2023/09/25 07:49:23;;;;;;;9.15;2.90;;;;;;;13.95;82.62;102003.69;6241896;23;20406;-72
2023/09/25 07:51:49;;;;;;;6.63;2.42;;;;;;;13.99;81.42;102000.66;6241182;23;20015;-73
2023/09/25 07:54:15;;;;;;;8.45;2.95;;;;;;;14.04;83.14;101996.78;6241978;23;20003;-71
2023/09/25 07:56:40;;;;;;;9.70;2.97;;;;;;;14.07;81.54;101999.25;6242221;23;20000;-73
2023/09/25 07:59:05;;;;;;;10.25;2.75;;;;;;;14.11;82.26;101996.22;6240329;23;20004;-74
2023/09/25 08:01:31;;;;;;;8.05;2.85;;;;;;;14.16;81.85;102013.00;6240862;23;20468;-73
2023/09/25 08:03:58;;;;;;;14.98;3.58;;;;;;;14.20;82.65;102005.53;6241715;23;20004;-74
2023/09/25 08:06:27;;;;;;;9.20;3.25;;;;;;;14.25;81.28;102010.63;6213635;23;20027;-71
2023/09/25 08:08:53;;;;;;;13.10;3.38;;;;;;;14.27;81.06;102012.25;6240740;23;20008;-71
2023/09/25 08:11:19;;;;;;;11.18;3.20;;;;;;;14.31;81.96;102015.59;6240735;23;20043;-71
2023/09/25 08:13:44;;;;;;;13.20;3.17;;;;;;;14.32;80.51;102012.78;6240869;23;20076;-72
2023/09/25 08:16:09;;;;;;;15.27;4.07;;;;;;;14.34;80.06;102013.53;6240634;23;20311;-71
2023/09/25 08:18:35;;;;;;;9.05;2.90;;;;;;;14.37;81.10;102012.47;6213526;23;20000;-72
2023/09/25 08:21:04;;;;;;;12.77;3.58;;;;;;;14.41;82.00;102021.25;6240700;23;20011;-71
2023/09/25 08:23:30;;;;;;;13.73;3.45;;;;;;;14.43;79.70;102008.47;6213471;23;20379;-73
2023/09/25 08:25:55;;;;;;;11.23;3.47;;;;;;;14.45;80.33;102015.50;6213829;23;20031;-72
2023/09/25 08:28:21;;;;;;;12.18;3.08;;;;;;;14.48;79.89;102014.41;6240714;23;20007;-72
2023/09/25 08:30:46;;;;;;;13.50;3.40;;;;;;;14.53;80.44;102011.38;6213658;23;20008;-72
2023/09/25 08:33:12;;;;;;;9.82;3.17;;;;;;;14.58;80.21;102011.91;6240548;23;20421;-71
2023/09/25 08:35:37;;;;;;;10.68;3.20;;;;;;;14.61;79.82;101999.06;6213361;23;20012;-71
2023/09/25 08:38:02;;;;;;;11.57;3.25;;;;;;;14.66;81.62;101996.88;6240386;23;20323;-72
2023/09/25 08:40:30;;;;;;;9.88;3.30;;;;;;;14.73;80.66;101997.31;6240811;23;20000;-71
2023/09/25 08:42:55;;;;;;;10.00;3.42;;;;;;;14.77;80.68;101998.78;6213369;23;20084;-71
2023/09/25 08:45:22;;;;;;;9.25;3.05;;;;;;;14.80;80.91;101993.19;6213636;23;20039;-71
2023/09/25 08:47:47;;;;;;;10.65;2.75;;;;;;;14.88;81.89;101986.34;6213823;23;20000;-72
2023/09/25 08:50:12;;;;;;;8.93;2.97;;;;;;;14.92;80.76;101988.72;6213184;23;20038;-72
2023/09/25 08:52:38;;;;;;;12.45;3.45;;;;;;;14.98;81.50;101988.25;6240675;23;20011;-72
2023/09/25 08:55:04;;;;;;;11.85;3.10;;;;;;;15.01;79.76;101989.88;6240330;23;20011;-72
2023/09/25 08:57:29;;;;;;;11.75;3.20;;;;;;;15.06;80.02;101992.25;6213667;23;20004;-72
2023/09/25 08:59:55;;;;;;;13.35;3.28;;;;;;;15.12;79.99;101976.38;6240898;23;20000;-72
2023/09/25 09:02:20;;;;;;;14.20;3.53;;;;;;;15.19;80.77;101984.94;6240615;23;20067;-72
2023/09/25 09:04:46;;;;;;;8.68;2.85;;;;;;;15.25;81.57;101979.03;6240757;23;20008;-72
2023/09/25 09:07:14;;;;;;;9.73;3.05;;;;;;;15.30;82.79;101982.28;6240144;23;20043;-73
2023/09/25 09:09:40;;;;;;;9.48;3.25;;;;;;;15.36;81.25;101992.66;6240936;23;20000;-71
2023/09/25 09:12:07;;;;;;;11.43;3.40;;;;;;;15.42;80.74;101995.84;6240025;23;20000;-73
2023/09/25 09:14:43;;;;;;;8.52;2.90;;;;;;;15.46;81.12;101989.22;6239829;23;20126;-72
2023/09/25 09:17:12;;;;;;;8.50;2.80;;;;;;;15.54;81.69;101984.09;6239694;23;20008;-72
2023/09/25 09:19:43;;;;;;;11.20;3.40;;;;;;;15.57;79.57;101983.00;6212194;23;20008;-72
2023/09/25 09:22:09;;;;;;;7.47;2.63;;;;;;;15.61;79.01;101988.06;6239909;23;20004;-71
2023/09/25 09:24:38;;;;;;;9.70;3.20;;;;;;;15.61;78.70;101982.66;6240272;23;20008;-73
2023/09/25 09:27:09;;;;;;;12.70;3.50;;;;;;;15.63;81.24;101986.09;6213168;23;20000;-72
2023/09/25 09:29:39;;;;;;;8.73;2.83;;;;;;;15.64;80.44;101987.84;6238912;23;20004;-72
2023/09/25 09:32:06;;;;;;;9.57;3.17;;;;;;;15.66;80.60;101988.56;6239916;23;20325;-71
2023/09/25 09:34:31;;;;;;;7.90;3.10;;;;;;;15.67;81.95;101984.88;6239862;23;20372;-72
2023/09/25 09:36:57;;;;;;;10.20;2.90;;;;;;;15.70;80.57;101987.34;6239332;23;20014;-72
2023/09/25 09:39:26;;;;;;;7.38;2.63;;;;;;;15.74;79.68;101993.44;6239636;23;20080;-72
2023/09/25 09:41:54;;;;;;;10.40;3.20;;;;;;;15.77;80.54;101997.72;6212559;23;20004;-71
2023/09/25 09:44:19;;;;;;;11.68;3.03;;;;;;;15.81;81.11;101997.44;6240071;23;20004;-72
2023/09/25 09:46:50;;;;;;;10.93;3.00;;;;;;;15.88;81.01;101995.94;6239784;23;20408;-73
2023/09/25 09:49:18;;;;;;;8.50;2.72;;;;;;;15.95;83.20;101999.06;6239721;23;20101;-72
2023/09/25 09:51:44;;;;;;;14.27;3.55;;;;;;;15.98;80.79;101998.81;6209674;23;20018;-72
2023/09/25 09:54:12;;;;;;;7.50;2.65;;;;;;;16.01;80.94;102000.41;6238190;23;20286;-72
2023/09/25 09:56:39;;;;;;;6.57;2.72;;;;;;;16.06;82.64;102006.34;6238404;23;20008;-71
2023/09/25 09:59:06;;;;;;;6.97;2.90;;;;;;;16.08;83.27;102010.66;6238799;23;20004;-71
2023/09/25 10:01:33;;;;;;;11.32;3.20;;;;;;;16.12;82.50;102003.16;6211097;23;20022;-72
2023/09/25 10:04:01;;;;;;;9.52;2.83;;;;;;;16.16;81.86;101999.19;6214797;23;20087;-74
2023/09/25 10:06:28;;;;;;;8.88;2.70;;;;;;;16.19;82.71;102004.41;6245246;23;20012;-71
2023/09/25 10:09:06;;;;;;;8.18;2.75;;;;;;;16.22;83.00;102003.28;6251287;23;20077;-72
2023/09/25 10:11:31;;;;;;;9.98;2.72;;;;;;;16.25;83.18;101998.50;6242220;23;20004;-72
2023/09/25 10:14:04;;;;;;;7.07;2.85;;;;;;;16.28;82.40;101991.94;6241321;23;20438;-73
2023/09/25 10:16:41;;;;;;;7.97;2.80;;;;;;;16.30;83.30;101998.13;6240332;23;20007;-69
2023/09/25 10:19:19;;;;;;;7.68;2.83;;;;;;;16.36;79.56;102000.34;6239777;23;20084;-71
2023/09/25 10:22:12;;;;;;;11.93;2.92;;;;;;;16.41;79.09;101998.13;6241747;23;20011;-71
2023/09/25 10:24:38;;;;;;;10.10;2.70;;;;;;;16.50;78.84;102001.09;6212167;23;20119;-72
2023/09/25 10:27:04;;;;;;;6.85;2.13;;;;;;;16.56;82.24;101997.88;6241800;23;20024;-74
2023/09/25 10:29:30;;;;;;;3.85;2.30;;;;;;;16.62;80.10;102002.81;6213840;23;20000;-74
2023/09/25 10:31:55;;;;;;;7.43;2.70;;;;;;;16.64;79.77;102008.13;6240194;23;20298;-73
2023/09/25 10:34:25;;;;;;;7.72;2.90;;;;;;;16.68;79.72;102006.91;6239732;23;20434;-74
2023/09/25 10:36:52;;;;;;;12.43;2.95;;;;;;;16.69;77.34;102004.06;6241322;23;20453;-74
2023/09/25 10:39:18;;;;;;;9.50;3.10;;;;;;;16.73;79.51;102002.78;6213389;23;20017;-74
2023/09/25 10:41:48;;;;;;;8.73;2.92;;;;;;;16.75;78.96;102000.84;6240649;23;20006;-74
2023/09/25 10:44:14;;;;;;;12.73;3.55;;;;;;;16.82;81.39;102005.75;6213350;23;20019;-74
2023/09/25 10:46:39;;;;;;;8.57;3.08;;;;;;;16.84;82.29;101998.34;6240387;23;20008;-74
2023/09/25 10:49:10;;;;;;;8.43;2.40;;;;;;;16.88;79.01;101991.72;6240425;23;20091;-74
2023/09/25 10:51:36;;;;;;;11.25;2.90;;;;;;;16.92;76.31;101991.31;6240429;23;20000;-74
2023/09/25 10:54:02;;;;;;;9.48;2.85;;;;;;;16.98;76.43;101989.97;6213614;23;20010;-74
2023/09/25 10:56:27;;;;;;;8.15;2.72;;;;;;;17.01;75.60;101997.84;6240847;23;20039;-73
2023/09/25 10:58:53;;;;;;;12.00;2.85;;;;;;;17.08;76.90;101998.22;6239827;23;20435;-74
2023/09/25 11:01:28;;;;;;;5.50;2.75;;;;;;;17.09;76.53;102000.81;6241025;23;20087;-74
2023/09/25 11:03:55;;;;;;;6.03;2.40;;;;;;;17.16;78.06;101997.59;6211140;23;20027;-74
2023/09/25 11:06:21;;;;;;;9.30;2.88;;;;;;;17.16;77.29;102003.00;6211490;23;20107;-73
2023/09/25 11:08:46;;;;;;;9.65;2.78;;;;;;;17.21;80.18;102001.66;6239586;23;20020;-74
2023/09/25 11:11:14;;;;;;;11.65;2.80;;;;;;;17.25;78.24;102005.00;6212696;23;20033;-74
2023/09/25 11:13:39;;;;;;;10.15;3.28;;;;;;;17.25;74.95;102011.28;6239082;23;20139;-74
2023/09/25 11:16:06;;;;;;;9.10;2.65;;;;;;;17.27;76.92;102005.72;6240469;23;20028;-74
2023/09/25 11:18:31;;;;;;;11.38;2.72;;;;;;;17.34;76.11;101997.91;6213802;23;20080;-73